sensor_id;sensor_type;location;lat;lon;timestamp;temperature;humidity
75985;DHT22;65033;44.660;37.758;2023-06-01T00:00:00;20.07;106.04
75985;DHT22;65033;44.660;37.758;2023-06-01T00:01:07;20.07;106.52
75985;DHT22;65033;44.660;37.758;2023-06-01T00:02:16;20.07;106.46
75985;DHT22;65033;44.660;37.758;2023-06-01T00:03:19;20.05;105.20
75985;DHT22;65033;44.660;37.758;2023-06-01T00:04:23;20.09;104.88
75985;DHT22;65033;44.660;37.758;2023-06-01T00:05:28;20.07;105.03
75985;DHT22;65033;44.660;37.758;2023-06-01T00:06:32;20.07;104.72
75985;DHT22;65033;44.660;37.758;2023-06-01T00:07:36;20.09;105.06
75985;DHT22;65033;44.660;37.758;2023-06-01T00:08:40;20.09;106.32
75985;DHT22;65033;44.660;37.758;2023-06-01T00:09:43;20.10;105.43
75985;DHT22;65033;44.660;37.758;2023-06-01T00:10:47;20.10;106.25
75985;DHT22;65033;44.660;37.758;2023-06-01T00:11:51;20.06;106.44
75985;DHT22;65033;44.660;37.758;2023-06-01T00:12:54;20.05;106.36
75985;DHT22;65033;44.660;37.758;2023-06-01T00:13:58;20.06;106.30
75985;DHT22;65033;44.660;37.758;2023-06-01T00:15:02;20.04;107.53
75985;DHT22;65033;44.660;37.758;2023-06-01T00:16:06;20.09;106.34
75985;DHT22;65033;44.660;37.758;2023-06-01T00:17:10;20.14;105.35
75985;DHT22;65033;44.660;37.758;2023-06-01T00:18:14;20.14;107.60
75985;DHT22;65033;44.660;37.758;2023-06-01T00:19:18;20.17;106.01
75985;DHT22;65033;44.660;37.758;2023-06-01T00:20:24;20.18;105.98
75985;DHT22;65033;44.660;37.758;2023-06-01T00:21:29;20.17;104.50
75985;DHT22;65033;44.660;37.758;2023-06-01T00:22:35;20.12;105.87
75985;DHT22;65033;44.660;37.758;2023-06-01T00:23:41;20.15;106.01
75985;DHT22;65033;44.660;37.758;2023-06-01T00:24:46;20.13;105.42
75985;DHT22;65033;44.660;37.758;2023-06-01T00:25:49;20.10;107.40
75985;DHT22;65033;44.660;37.758;2023-06-01T00:26:53;20.14;106.11
75985;DHT22;65033;44.660;37.758;2023-06-01T00:27:57;20.14;105.66
75985;DHT22;65033;44.660;37.758;2023-06-01T00:29:01;20.18;106.80
75985;DHT22;65033;44.660;37.758;2023-06-01T00:30:05;20.19;105.79
75985;DHT22;65033;44.660;37.758;2023-06-01T00:31:09;20.15;106.50
75985;DHT22;65033;44.660;37.758;2023-06-01T00:32:13;20.13;105.81
75985;DHT22;65033;44.660;37.758;2023-06-01T00:33:16;20.14;105.19
75985;DHT22;65033;44.660;37.758;2023-06-01T00:34:20;20.15;105.77
75985;DHT22;65033;44.660;37.758;2023-06-01T00:35:24;20.18;107.20
75985;DHT22;65033;44.660;37.758;2023-06-01T00:36:29;20.15;106.06
75985;DHT22;65033;44.660;37.758;2023-06-01T00:37:34;20.16;105.34
75985;DHT22;65033;44.660;37.758;2023-06-01T00:38:38;20.20;105.95
75985;DHT22;65033;44.660;37.758;2023-06-01T00:39:42;20.20;107.43
75985;DHT22;65033;44.660;37.758;2023-06-01T00:40:46;20.18;106.55
75985;DHT22;65033;44.660;37.758;2023-06-01T00:41:53;20.20;105.10
75985;DHT22;65033;44.660;37.758;2023-06-01T00:42:57;20.19;108.41
75985;DHT22;65033;44.660;37.758;2023-06-01T00:44:01;20.20;105.66
75985;DHT22;65033;44.660;37.758;2023-06-01T00:45:05;20.20;104.90
75985;DHT22;65033;44.660;37.758;2023-06-01T00:46:09;20.24;105.90
75985;DHT22;65033;44.660;37.758;2023-06-01T00:47:13;20.20;105.93
75985;DHT22;65033;44.660;37.758;2023-06-01T00:48:18;20.21;104.44
75985;DHT22;65033;44.660;37.758;2023-06-01T00:49:22;20.20;104.40
75985;DHT22;65033;44.660;37.758;2023-06-01T00:50:26;20.19;104.44
75985;DHT22;65033;44.660;37.758;2023-06-01T00:51:32;20.16;106.34
75985;DHT22;65033;44.660;37.758;2023-06-01T00:52:36;20.14;105.18
75985;DHT22;65033;44.660;37.758;2023-06-01T00:53:42;20.13;103.53
75985;DHT22;65033;44.660;37.758;2023-06-01T00:54:46;20.12;103.18
75985;DHT22;65033;44.660;37.758;2023-06-01T00:55:49;20.11;105.65
75985;DHT22;65033;44.660;37.758;2023-06-01T00:56:53;20.15;105.18
75985;DHT22;65033;44.660;37.758;2023-06-01T00:57:57;20.14;103.88
75985;DHT22;65033;44.660;37.758;2023-06-01T00:59:01;20.14;104.13
75985;DHT22;65033;44.660;37.758;2023-06-01T01:00:06;20.12;102.83
75985;DHT22;65033;44.660;37.758;2023-06-01T01:01:14;20.11;103.83
75985;DHT22;65033;44.660;37.758;2023-06-01T01:02:26;20.09;104.21
75985;DHT22;65033;44.660;37.758;2023-06-01T01:03:34;20.09;103.52
75985;DHT22;65033;44.660;37.758;2023-06-01T01:04:41;20.07;103.88
75985;DHT22;65033;44.660;37.758;2023-06-01T01:05:46;20.07;104.15
75985;DHT22;65033;44.660;37.758;2023-06-01T01:06:56;20.06;105.29
75985;DHT22;65033;44.660;37.758;2023-06-01T01:08:09;20.04;104.53
75985;DHT22;65033;44.660;37.758;2023-06-01T01:09:23;20.04;104.44
75985;DHT22;65033;44.660;37.758;2023-06-01T01:10:32;20.05;104.91
75985;DHT22;65033;44.660;37.758;2023-06-01T01:11:37;20.06;105.74
75985;DHT22;65033;44.660;37.758;2023-06-01T01:12:47;20.06;104.73
75985;DHT22;65033;44.660;37.758;2023-06-01T01:14:00;20.05;106.06
75985;DHT22;65033;44.660;37.758;2023-06-01T01:15:08;20.07;104.64
75985;DHT22;65033;44.660;37.758;2023-06-01T01:16:20;20.07;100.72
75985;DHT22;65033;44.660;37.758;2023-06-01T01:17:32;20.09;95.55
75985;DHT22;65033;44.660;37.758;2023-06-01T01:18:40;20.11;99.45
75985;DHT22;65033;44.660;37.758;2023-06-01T01:19:55;20.13;85.53
75985;DHT22;65033;44.660;37.758;2023-06-01T01:21:03;20.15;88.34
75985;DHT22;65033;44.660;37.758;2023-06-01T01:24:15;20.12;91.47
75985;DHT22;65033;44.660;37.758;2023-06-01T01:27:17;20.10;86.41
75985;DHT22;65033;44.660;37.758;2023-06-01T01:28:36;20.07;84.74
75985;DHT22;65033;44.660;37.758;2023-06-01T01:29:42;20.06;91.37
75985;DHT22;65033;44.660;37.758;2023-06-01T01:30:46;20.00;103.06
75985;DHT22;65033;44.660;37.758;2023-06-01T01:31:51;19.99;101.89
75985;DHT22;65033;44.660;37.758;2023-06-01T01:32:56;19.98;103.73
75985;DHT22;65033;44.660;37.758;2023-06-01T01:34:02;19.98;104.43
75985;DHT22;65033;44.660;37.758;2023-06-01T01:35:07;19.97;105.38
75985;DHT22;65033;44.660;37.758;2023-06-01T01:36:12;19.96;104.73
75985;DHT22;65033;44.660;37.758;2023-06-01T01:37:16;19.97;103.17
75985;DHT22;65033;44.660;37.758;2023-06-01T01:38:19;19.97;104.53
75985;DHT22;65033;44.660;37.758;2023-06-01T01:39:24;19.97;104.89
75985;DHT22;65033;44.660;37.758;2023-06-01T01:40:28;19.98;104.69
75985;DHT22;65033;44.660;37.758;2023-06-01T01:41:32;19.98;104.53
75985;DHT22;65033;44.660;37.758;2023-06-01T01:42:36;19.95;103.21
75985;DHT22;65033;44.660;37.758;2023-06-01T01:43:42;19.95;103.44
75985;DHT22;65033;44.660;37.758;2023-06-01T01:44:46;19.94;104.02
75985;DHT22;65033;44.660;37.758;2023-06-01T01:45:56;19.96;102.10
75985;DHT22;65033;44.660;37.758;2023-06-01T01:47:07;19.92;102.77
75985;DHT22;65033;44.660;37.758;2023-06-01T01:48:19;19.94;101.67
75985;DHT22;65033;44.660;37.758;2023-06-01T01:49:28;19.94;105.60
75985;DHT22;65033;44.660;37.758;2023-06-01T01:50:37;19.97;104.28
75985;DHT22;65033;44.660;37.758;2023-06-01T01:51:48;19.98;104.99
75985;DHT22;65033;44.660;37.758;2023-06-01T01:52:53;19.99;103.33
75985;DHT22;65033;44.660;37.758;2023-06-01T01:53:58;19.99;104.99
75985;DHT22;65033;44.660;37.758;2023-06-01T01:55:02;19.98;105.05
75985;DHT22;65033;44.660;37.758;2023-06-01T01:56:07;19.98;105.80
75985;DHT22;65033;44.660;37.758;2023-06-01T01:57:13;19.97;104.74
75985;DHT22;65033;44.660;37.758;2023-06-01T01:58:18;19.94;104.64
75985;DHT22;65033;44.660;37.758;2023-06-01T01:59:24;19.90;104.05
75985;DHT22;65033;44.660;37.758;2023-06-01T02:00:31;19.90;106.09
75985;DHT22;65033;44.660;37.758;2023-06-01T02:01:37;19.89;105.53
75985;DHT22;65033;44.660;37.758;2023-06-01T02:02:45;19.89;107.52
75985;DHT22;65033;44.660;37.758;2023-06-01T02:04:01;19.89;104.85
75985;DHT22;65033;44.660;37.758;2023-06-01T02:05:05;19.90;105.62
75985;DHT22;65033;44.660;37.758;2023-06-01T02:06:08;19.94;105.02
75985;DHT22;65033;44.660;37.758;2023-06-01T02:07:12;19.94;104.50
75985;DHT22;65033;44.660;37.758;2023-06-01T02:08:16;19.94;105.74
75985;DHT22;65033;44.660;37.758;2023-06-01T02:09:20;19.94;104.24
75985;DHT22;65033;44.660;37.758;2023-06-01T02:10:23;19.91;106.47
75985;DHT22;65033;44.660;37.758;2023-06-01T02:11:27;19.95;104.58
75985;DHT22;65033;44.660;37.758;2023-06-01T02:12:30;19.92;102.73
75985;DHT22;65033;44.660;37.758;2023-06-01T02:13:34;19.92;102.70
75985;DHT22;65033;44.660;37.758;2023-06-01T02:14:39;19.92;103.26
75985;DHT22;65033;44.660;37.758;2023-06-01T02:15:42;19.90;103.01
75985;DHT22;65033;44.660;37.758;2023-06-01T02:16:45;19.92;102.28
75985;DHT22;65033;44.660;37.758;2023-06-01T02:17:49;19.95;102.22
75985;DHT22;65033;44.660;37.758;2023-06-01T02:18:53;19.96;103.90
75985;DHT22;65033;44.660;37.758;2023-06-01T02:19:57;19.97;103.69
75985;DHT22;65033;44.660;37.758;2023-06-01T02:21:01;20.00;102.02
75985;DHT22;65033;44.660;37.758;2023-06-01T02:22:05;20.01;103.58
75985;DHT22;65033;44.660;37.758;2023-06-01T02:23:09;20.01;102.80
75985;DHT22;65033;44.660;37.758;2023-06-01T02:24:13;20.01;101.68
75985;DHT22;65033;44.660;37.758;2023-06-01T02:25:16;20.01;102.76
75985;DHT22;65033;44.660;37.758;2023-06-01T02:26:22;20.02;103.25
75985;DHT22;65033;44.660;37.758;2023-06-01T02:27:25;20.02;101.34
75985;DHT22;65033;44.660;37.758;2023-06-01T02:28:29;20.06;101.43
75985;DHT22;65033;44.660;37.758;2023-06-01T02:29:32;20.06;101.19
75985;DHT22;65033;44.660;37.758;2023-06-01T02:30:37;20.10;100.10
75985;DHT22;65033;44.660;37.758;2023-06-01T02:31:40;20.12;101.47
75985;DHT22;65033;44.660;37.758;2023-06-01T02:32:44;20.12;101.55
75985;DHT22;65033;44.660;37.758;2023-06-01T02:33:49;20.15;101.81
75985;DHT22;65033;44.660;37.758;2023-06-01T02:34:54;20.17;102.60
75985;DHT22;65033;44.660;37.758;2023-06-01T02:35:57;20.18;99.74
75985;DHT22;65033;44.660;37.758;2023-06-01T02:37:00;20.16;97.99
75985;DHT22;65033;44.660;37.758;2023-06-01T02:38:03;20.16;99.69
75985;DHT22;65033;44.660;37.758;2023-06-01T02:39:08;20.17;98.65
75985;DHT22;65033;44.660;37.758;2023-06-01T02:40:12;20.16;100.06
75985;DHT22;65033;44.660;37.758;2023-06-01T02:41:15;20.19;99.56
75985;DHT22;65033;44.660;37.758;2023-06-01T02:42:18;20.17;101.29
75985;DHT22;65033;44.660;37.758;2023-06-01T02:43:22;20.17;102.54
75985;DHT22;65033;44.660;37.758;2023-06-01T02:44:25;20.17;102.46
75985;DHT22;65033;44.660;37.758;2023-06-01T02:45:29;20.17;101.00
75985;DHT22;65033;44.660;37.758;2023-06-01T02:46:33;20.19;99.96
75985;DHT22;65033;44.660;37.758;2023-06-01T02:47:37;20.18;99.47
75985;DHT22;65033;44.660;37.758;2023-06-01T02:48:40;20.18;100.62
75985;DHT22;65033;44.660;37.758;2023-06-01T02:49:44;20.18;103.03
75985;DHT22;65033;44.660;37.758;2023-06-01T02:50:47;20.18;103.08
75985;DHT22;65033;44.660;37.758;2023-06-01T02:51:51;20.18;102.86
75985;DHT22;65033;44.660;37.758;2023-06-01T02:52:57;20.20;102.89
75985;DHT22;65033;44.660;37.758;2023-06-01T02:54:00;20.19;103.03
75985;DHT22;65033;44.660;37.758;2023-06-01T02:55:05;20.18;103.83
75985;DHT22;65033;44.660;37.758;2023-06-01T02:56:22;20.19;102.18
75985;DHT22;65033;44.660;37.758;2023-06-01T02:57:41;20.20;102.41
75985;DHT22;65033;44.660;37.758;2023-06-01T02:58:47;20.19;103.37
75985;DHT22;65033;44.660;37.758;2023-06-01T02:59:59;20.20;101.93
75985;DHT22;65033;44.660;37.758;2023-06-01T03:01:03;20.19;101.36
75985;DHT22;65033;44.660;37.758;2023-06-01T03:02:09;20.21;102.68
75985;DHT22;65033;44.660;37.758;2023-06-01T03:03:13;20.24;101.93
75985;DHT22;65033;44.660;37.758;2023-06-01T03:04:17;20.50;99.84
75985;DHT22;65033;44.660;37.758;2023-06-01T03:05:22;20.79;98.88
75985;DHT22;65033;44.660;37.758;2023-06-01T03:06:46;21.09;97.80
75985;DHT22;65033;44.660;37.758;2023-06-01T03:08:10;21.20;97.11
75985;DHT22;65033;44.660;37.758;2023-06-01T03:09:19;21.29;98.85
75985;DHT22;65033;44.660;37.758;2023-06-01T03:10:54;21.37;98.85
75985;DHT22;65033;44.660;37.758;2023-06-01T03:12:07;21.52;96.78
75985;DHT22;65033;44.660;37.758;2023-06-01T03:13:15;21.69;94.72
75985;DHT22;65033;44.660;37.758;2023-06-01T03:14:19;21.77;99.57
75985;DHT22;65033;44.660;37.758;2023-06-01T03:15:24;21.83;100.38
75985;DHT22;65033;44.660;37.758;2023-06-01T03:16:28;21.92;98.54
75985;DHT22;65033;44.660;37.758;2023-06-01T03:17:45;21.98;98.74
75985;DHT22;65033;44.660;37.758;2023-06-01T03:18:49;22.11;92.89
75985;DHT22;65033;44.660;37.758;2023-06-01T03:19:54;22.21;92.21
75985;DHT22;65033;44.660;37.758;2023-06-01T03:20:59;22.34;98.12
75985;DHT22;65033;44.660;37.758;2023-06-01T03:22:03;22.33;95.34
75985;DHT22;65033;44.660;37.758;2023-06-01T03:23:10;22.27;93.01
75985;DHT22;65033;44.660;37.758;2023-06-01T03:24:14;22.22;91.37
75985;DHT22;65033;44.660;37.758;2023-06-01T03:25:18;22.27;88.34
75985;DHT22;65033;44.660;37.758;2023-06-01T03:26:22;22.40;88.75
75985;DHT22;65033;44.660;37.758;2023-06-01T03:27:26;22.58;88.92
75985;DHT22;65033;44.660;37.758;2023-06-01T03:28:30;22.53;90.41
75985;DHT22;65033;44.660;37.758;2023-06-01T03:29:34;22.64;83.11
75985;DHT22;65033;44.660;37.758;2023-06-01T03:30:39;22.71;79.06
75985;DHT22;65033;44.660;37.758;2023-06-01T03:31:46;22.83;87.29
75985;DHT22;65033;44.660;37.758;2023-06-01T03:32:55;22.70;88.61
75985;DHT22;65033;44.660;37.758;2023-06-01T03:34:00;22.66;92.50
75985;DHT22;65033;44.660;37.758;2023-06-01T03:35:08;22.58;90.31
75985;DHT22;65033;44.660;37.758;2023-06-01T03:36:13;22.64;90.85
75985;DHT22;65033;44.660;37.758;2023-06-01T03:37:19;22.60;82.06
75985;DHT22;65033;44.660;37.758;2023-06-01T03:38:24;22.66;81.92
75985;DHT22;65033;44.660;37.758;2023-06-01T03:39:29;22.67;88.31
75985;DHT22;65033;44.660;37.758;2023-06-01T03:40:38;22.56;87.10
75985;DHT22;65033;44.660;37.758;2023-06-01T03:41:43;22.61;91.99
75985;DHT22;65033;44.660;37.758;2023-06-01T03:42:48;22.57;82.89
75985;DHT22;65033;44.660;37.758;2023-06-01T03:43:52;22.49;91.89
75985;DHT22;65033;44.660;37.758;2023-06-01T03:44:57;22.46;85.71
75985;DHT22;65033;44.660;37.758;2023-06-01T03:46:01;22.33;84.19
75985;DHT22;65033;44.660;37.758;2023-06-01T03:47:07;22.34;85.32
75985;DHT22;65033;44.660;37.758;2023-06-01T03:48:12;22.53;85.35
75985;DHT22;65033;44.660;37.758;2023-06-01T03:49:16;22.61;87.37
75985;DHT22;65033;44.660;37.758;2023-06-01T03:50:20;22.76;79.15
75985;DHT22;65033;44.660;37.758;2023-06-01T03:51:25;22.77;78.82
75985;DHT22;65033;44.660;37.758;2023-06-01T03:52:29;22.75;91.49
75985;DHT22;65033;44.660;37.758;2023-06-01T03:53:34;22.93;87.63
75985;DHT22;65033;44.660;37.758;2023-06-01T03:54:38;22.87;83.88
75985;DHT22;65033;44.660;37.758;2023-06-01T03:55:53;22.83;81.75
75985;DHT22;65033;44.660;37.758;2023-06-01T03:57:10;22.97;81.93
75985;DHT22;65033;44.660;37.758;2023-06-01T03:58:14;23.13;79.78
75985;DHT22;65033;44.660;37.758;2023-06-01T03:59:18;23.16;83.94
75985;DHT22;65033;44.660;37.758;2023-06-01T04:00:22;23.17;94.35
75985;DHT22;65033;44.660;37.758;2023-06-01T04:01:27;23.36;82.33
75985;DHT22;65033;44.660;37.758;2023-06-01T04:02:34;23.36;86.37
75985;DHT22;65033;44.660;37.758;2023-06-01T04:03:41;23.28;82.25
75985;DHT22;65033;44.660;37.758;2023-06-01T04:04:46;23.24;81.01
75985;DHT22;65033;44.660;37.758;2023-06-01T04:05:50;23.20;76.65
75985;DHT22;65033;44.660;37.758;2023-06-01T04:06:53;23.06;78.76
75985;DHT22;65033;44.660;37.758;2023-06-01T04:07:59;22.93;79.77
75985;DHT22;65033;44.660;37.758;2023-06-01T04:09:03;22.87;78.15
75985;DHT22;65033;44.660;37.758;2023-06-01T04:10:11;22.76;79.05
75985;DHT22;65033;44.660;37.758;2023-06-01T04:11:17;22.76;75.92
75985;DHT22;65033;44.660;37.758;2023-06-01T04:12:23;22.68;84.40
75985;DHT22;65033;44.660;37.758;2023-06-01T04:13:27;22.57;89.34
75985;DHT22;65033;44.660;37.758;2023-06-01T04:14:31;22.64;85.12
75985;DHT22;65033;44.660;37.758;2023-06-01T04:15:35;22.69;84.59
75985;DHT22;65033;44.660;37.758;2023-06-01T04:16:39;22.79;84.13
75985;DHT22;65033;44.660;37.758;2023-06-01T04:17:43;22.84;81.81
75985;DHT22;65033;44.660;37.758;2023-06-01T04:18:49;22.87;77.16
75985;DHT22;65033;44.660;37.758;2023-06-01T04:19:55;22.99;83.36
75985;DHT22;65033;44.660;37.758;2023-06-01T04:21:00;22.98;83.42
75985;DHT22;65033;44.660;37.758;2023-06-01T04:22:05;23.11;80.97
75985;DHT22;65033;44.660;37.758;2023-06-01T04:23:09;23.32;81.84
75985;DHT22;65033;44.660;37.758;2023-06-01T04:24:20;23.45;76.85
75985;DHT22;65033;44.660;37.758;2023-06-01T04:25:24;23.43;78.14
75985;DHT22;65033;44.660;37.758;2023-06-01T04:26:27;23.47;79.03
75985;DHT22;65033;44.660;37.758;2023-06-01T04:27:32;23.47;75.40
75985;DHT22;65033;44.660;37.758;2023-06-01T04:28:41;23.49;79.30
75985;DHT22;65033;44.660;37.758;2023-06-01T04:29:55;23.49;77.58
75985;DHT22;65033;44.660;37.758;2023-06-01T04:31:02;23.40;90.41
75985;DHT22;65033;44.660;37.758;2023-06-01T04:32:06;23.35;82.27
75985;DHT22;65033;44.660;37.758;2023-06-01T04:33:10;23.40;78.08
75985;DHT22;65033;44.660;37.758;2023-06-01T04:34:15;23.35;98.98
75985;DHT22;65033;44.660;37.758;2023-06-01T04:35:19;23.34;76.44
75985;DHT22;65033;44.660;37.758;2023-06-01T04:36:23;23.41;92.54
75985;DHT22;65033;44.660;37.758;2023-06-01T04:37:31;23.41;77.40
75985;DHT22;65033;44.660;37.758;2023-06-01T04:38:40;23.38;81.48
75985;DHT22;65033;44.660;37.758;2023-06-01T04:39:44;23.37;90.63
75985;DHT22;65033;44.660;37.758;2023-06-01T04:40:52;23.27;80.73
75985;DHT22;65033;44.660;37.758;2023-06-01T04:41:58;23.22;80.62
75985;DHT22;65033;44.660;37.758;2023-06-01T04:43:02;23.22;87.63
75985;DHT22;65033;44.660;37.758;2023-06-01T04:44:06;23.17;74.55
75985;DHT22;65033;44.660;37.758;2023-06-01T04:45:11;23.08;81.93
75985;DHT22;65033;44.660;37.758;2023-06-01T04:46:17;23.28;83.83
75985;DHT22;65033;44.660;37.758;2023-06-01T04:47:21;23.30;78.07
75985;DHT22;65033;44.660;37.758;2023-06-01T04:48:29;23.38;82.05
75985;DHT22;65033;44.660;37.758;2023-06-01T04:49:43;23.46;77.83
75985;DHT22;65033;44.660;37.758;2023-06-01T04:50:46;23.52;73.90
75985;DHT22;65033;44.660;37.758;2023-06-01T04:52:33;23.85;82.78
75985;DHT22;65033;44.660;37.758;2023-06-01T04:53:37;23.89;88.05
75985;DHT22;65033;44.660;37.758;2023-06-01T04:54:50;23.86;83.30
75985;DHT22;65033;44.660;37.758;2023-06-01T04:55:53;23.80;85.20
75985;DHT22;65033;44.660;37.758;2023-06-01T04:56:57;23.74;84.27
75985;DHT22;65033;44.660;37.758;2023-06-01T04:58:01;23.67;83.32
75985;DHT22;65033;44.660;37.758;2023-06-01T04:59:08;23.64;80.06
75985;DHT22;65033;44.660;37.758;2023-06-01T05:00:33;23.55;79.65
75985;DHT22;65033;44.660;37.758;2023-06-01T05:01:37;23.54;76.19
75985;DHT22;65033;44.660;37.758;2023-06-01T05:02:47;23.50;75.04
75985;DHT22;65033;44.660;37.758;2023-06-01T05:03:55;23.52;85.48
75985;DHT22;65033;44.660;37.758;2023-06-01T05:05:00;23.54;82.42
75985;DHT22;65033;44.660;37.758;2023-06-01T05:06:09;23.57;81.65
75985;DHT22;65033;44.660;37.758;2023-06-01T05:07:21;23.72;78.05
75985;DHT22;65033;44.660;37.758;2023-06-01T05:08:27;23.97;81.42
75985;DHT22;65033;44.660;37.758;2023-06-01T05:09:32;24.04;69.46
75985;DHT22;65033;44.660;37.758;2023-06-01T05:10:36;24.05;74.83
75985;DHT22;65033;44.660;37.758;2023-06-01T05:11:41;24.03;76.86
75985;DHT22;65033;44.660;37.758;2023-06-01T05:12:46;24.03;75.65
75985;DHT22;65033;44.660;37.758;2023-06-01T05:13:51;24.01;78.82
75985;DHT22;65033;44.660;37.758;2023-06-01T05:15:00;23.94;85.32
75985;DHT22;65033;44.660;37.758;2023-06-01T05:16:05;23.75;76.24
75985;DHT22;65033;44.660;37.758;2023-06-01T05:17:10;23.70;83.24
75985;DHT22;65033;44.660;37.758;2023-06-01T05:18:14;23.68;83.07
75985;DHT22;65033;44.660;37.758;2023-06-01T05:19:18;23.67;82.42
75985;DHT22;65033;44.660;37.758;2023-06-01T05:20:24;23.61;81.46
75985;DHT22;65033;44.660;37.758;2023-06-01T05:21:31;23.64;81.39
75985;DHT22;65033;44.660;37.758;2023-06-01T05:22:35;23.55;82.84
75985;DHT22;65033;44.660;37.758;2023-06-01T05:23:39;23.54;81.97
75985;DHT22;65033;44.660;37.758;2023-06-01T05:24:47;23.51;81.49
75985;DHT22;65033;44.660;37.758;2023-06-01T05:25:54;23.55;82.58
75985;DHT22;65033;44.660;37.758;2023-06-01T05:27:08;23.52;76.92
75985;DHT22;65033;44.660;37.758;2023-06-01T05:28:14;23.57;83.31
75985;DHT22;65033;44.660;37.758;2023-06-01T05:29:18;23.70;77.65
75985;DHT22;65033;44.660;37.758;2023-06-01T05:30:22;23.88;77.05
75985;DHT22;65033;44.660;37.758;2023-06-01T05:31:27;24.10;88.49
75985;DHT22;65033;44.660;37.758;2023-06-01T05:32:32;24.18;73.69
75985;DHT22;65033;44.660;37.758;2023-06-01T05:33:42;24.14;90.52
75985;DHT22;65033;44.660;37.758;2023-06-01T05:34:46;24.19;76.13
75985;DHT22;65033;44.660;37.758;2023-06-01T05:35:51;24.08;77.79
75985;DHT22;65033;44.660;37.758;2023-06-01T05:36:59;24.04;76.99
75985;DHT22;65033;44.660;37.758;2023-06-01T05:38:03;23.95;75.19
75985;DHT22;65033;44.660;37.758;2023-06-01T05:39:07;23.80;74.06
75985;DHT22;65033;44.660;37.758;2023-06-01T05:40:11;23.75;81.65
75985;DHT22;65033;44.660;37.758;2023-06-01T05:41:16;23.71;76.35
75985;DHT22;65033;44.660;37.758;2023-06-01T05:42:21;23.60;79.84
75985;DHT22;65033;44.660;37.758;2023-06-01T05:43:28;23.53;83.97
75985;DHT22;65033;44.660;37.758;2023-06-01T05:44:36;23.59;85.77
75985;DHT22;65033;44.660;37.758;2023-06-01T05:45:42;23.57;85.86
75985;DHT22;65033;44.660;37.758;2023-06-01T05:46:48;23.75;78.56
75985;DHT22;65033;44.660;37.758;2023-06-01T05:47:52;23.71;77.65
75985;DHT22;65033;44.660;37.758;2023-06-01T05:48:57;23.65;79.62
75985;DHT22;65033;44.660;37.758;2023-06-01T05:50:02;23.61;77.62
75985;DHT22;65033;44.660;37.758;2023-06-01T05:51:08;23.67;77.87
75985;DHT22;65033;44.660;37.758;2023-06-01T05:52:11;23.65;79.54
75985;DHT22;65033;44.660;37.758;2023-06-01T05:53:17;23.61;78.61
75985;DHT22;65033;44.660;37.758;2023-06-01T05:54:21;23.60;79.38
75985;DHT22;65033;44.660;37.758;2023-06-01T05:55:25;23.52;79.55
75985;DHT22;65033;44.660;37.758;2023-06-01T05:56:29;23.51;83.24
75985;DHT22;65033;44.660;37.758;2023-06-01T05:57:33;23.59;80.11
75985;DHT22;65033;44.660;37.758;2023-06-01T05:58:37;23.56;78.88
75985;DHT22;65033;44.660;37.758;2023-06-01T06:00:04;23.49;78.54
75985;DHT22;65033;44.660;37.758;2023-06-01T06:01:19;23.51;81.16
75985;DHT22;65033;44.660;37.758;2023-06-01T06:02:23;23.50;79.07
75985;DHT22;65033;44.660;37.758;2023-06-01T06:03:27;23.50;79.74
75985;DHT22;65033;44.660;37.758;2023-06-01T06:04:32;23.53;80.35
75985;DHT22;65033;44.660;37.758;2023-06-01T06:05:35;23.65;83.14
75985;DHT22;65033;44.660;37.758;2023-06-01T06:06:58;23.75;84.11
75985;DHT22;65033;44.660;37.758;2023-06-01T06:08:22;23.80;82.48
75985;DHT22;65033;44.660;37.758;2023-06-01T06:09:26;23.79;80.33
75985;DHT22;65033;44.660;37.758;2023-06-01T06:10:29;23.88;77.42
75985;DHT22;65033;44.660;37.758;2023-06-01T06:11:33;23.92;77.52
75985;DHT22;65033;44.660;37.758;2023-06-01T06:12:40;23.94;79.70
75985;DHT22;65033;44.660;37.758;2023-06-01T06:13:43;23.88;86.67
75985;DHT22;65033;44.660;37.758;2023-06-01T06:14:46;23.82;73.98
75985;DHT22;65033;44.660;37.758;2023-06-01T06:15:51;23.75;79.83
75985;DHT22;65033;44.660;37.758;2023-06-01T06:16:55;23.73;85.50
75985;DHT22;65033;44.660;37.758;2023-06-01T06:17:59;23.61;91.66
75985;DHT22;65033;44.660;37.758;2023-06-01T06:19:02;23.51;91.82
75985;DHT22;65033;44.660;37.758;2023-06-01T06:20:06;23.54;92.24
75985;DHT22;65033;44.660;37.758;2023-06-01T06:21:10;23.61;89.29
75985;DHT22;65033;44.660;37.758;2023-06-01T06:22:16;23.64;88.15
75985;DHT22;65033;44.660;37.758;2023-06-01T06:23:20;23.64;90.05
75985;DHT22;65033;44.660;37.758;2023-06-01T06:24:24;23.73;88.80
75985;DHT22;65033;44.660;37.758;2023-06-01T06:25:27;23.86;90.32
75985;DHT22;65033;44.660;37.758;2023-06-01T06:26:30;24.09;87.55
75985;DHT22;65033;44.660;37.758;2023-06-01T06:27:34;24.17;86.58
75985;DHT22;65033;44.660;37.758;2023-06-01T06:28:39;24.23;88.83
75985;DHT22;65033;44.660;37.758;2023-06-01T06:29:43;24.27;88.28
75985;DHT22;65033;44.660;37.758;2023-06-01T06:30:49;24.33;86.35
75985;DHT22;65033;44.660;37.758;2023-06-01T06:31:57;24.42;87.25
75985;DHT22;65033;44.660;37.758;2023-06-01T06:33:27;24.46;88.28
75985;DHT22;65033;44.660;37.758;2023-06-01T06:35:41;24.41;86.86
75985;DHT22;65033;44.660;37.758;2023-06-01T06:36:46;24.43;87.64
75985;DHT22;65033;44.660;37.758;2023-06-01T06:37:53;24.54;87.83
75985;DHT22;65033;44.660;37.758;2023-06-01T06:38:57;24.60;86.06
75985;DHT22;65033;44.660;37.758;2023-06-01T06:40:01;24.64;87.40
75985;DHT22;65033;44.660;37.758;2023-06-01T06:41:05;24.55;87.56
75985;DHT22;65033;44.660;37.758;2023-06-01T06:42:15;24.55;85.78
75985;DHT22;65033;44.660;37.758;2023-06-01T06:43:27;24.60;86.70
75985;DHT22;65033;44.660;37.758;2023-06-01T06:44:40;24.63;84.07
75985;DHT22;65033;44.660;37.758;2023-06-01T06:45:44;24.65;81.27
75985;DHT22;65033;44.660;37.758;2023-06-01T06:47:14;24.62;81.56
75985;DHT22;65033;44.660;37.758;2023-06-01T06:48:22;24.58;81.64
75985;DHT22;65033;44.660;37.758;2023-06-01T06:49:26;24.60;80.29
75985;DHT22;65033;44.660;37.758;2023-06-01T06:50:30;24.54;79.69
75985;DHT22;65033;44.660;37.758;2023-06-01T06:51:36;24.53;81.68
75985;DHT22;65033;44.660;37.758;2023-06-01T06:53:02;24.47;82.36
75985;DHT22;65033;44.660;37.758;2023-06-01T06:54:08;24.39;82.93